Time;durP1;ratioP1;P1;durP2;ratioP2;P2;SDS_P1;SDS_P2;PMS_P1;PMS_P2;Temp;Humidity;BMP_temperature;BMP_pressure;BME280_temperature;BME280_humidity;BME280_pressure;Samples;Min_cycle;Max_cycle;Signal;HPM_P1;HPM_P2
2022/10/24 00:01:08;;;;;;;6.22;3.33;;;;;;;8.45;80.71;97681.16;5025063;28;20136;-62
2022/10/24 00:03:34;;;;;;;6.23;3.13;;;;;;;8.58;82.04;97688.34;5026373;28;20508;-61
2022/10/24 00:06:01;;;;;;;4.78;2.30;;;;;;;8.28;82.41;97639.94;5026147;28;20081;-61
2022/10/24 00:08:27;;;;;;;4.38;2.65;;;;;;;8.51;82.44;97665.97;5026531;28;20084;-62
2022/10/24 00:10:54;;;;;;;4.55;2.63;;;;;;;8.16;82.20;97645.38;5026347;28;20059;-61
2022/10/24 00:13:20;;;;;;;4.28;2.63;;;;;;;8.47;82.19;97687.16;5026321;28;20247;-61
2022/10/24 00:15:48;;;;;;;4.50;2.22;;;;;;;8.14;82.98;97631.13;5025764;28;20093;-59
2022/10/24 00:18:15;;;;;;;3.95;2.20;;;;;;;8.64;82.02;97709.06;5026626;28;20914;-61
2022/10/24 00:20:42;;;;;;;4.40;2.70;;;;;;;8.67;80.94;97702.84;5025754;28;20908;-58
2022/10/24 00:23:14;;;;;;;6.53;3.50;;;;;;;8.00;80.45;97622.34;5026409;28;20125;-58
2022/10/24 00:25:40;;;;;;;6.28;3.00;;;;;;;8.41;81.59;97710.59;5025349;28;20137;-61
2022/10/24 00:28:07;;;;;;;7.05;2.88;;;;;;;8.11;81.94;97662.16;5024688;28;20634;-61
2022/10/24 00:30:34;;;;;;;7.80;3.65;;;;;;;8.43;82.05;97713.81;5026088;28;20493;-61
2022/10/24 00:33:00;;;;;;;6.18;2.97;;;;;;;8.10;82.34;97655.00;5024222;28;20144;-61
2022/10/24 00:35:27;;;;;;;5.25;3.08;;;;;;;8.57;81.83;97698.56;5025697;28;20128;-61
2022/10/24 00:37:54;;;;;;;6.35;3.08;;;;;;;8.54;82.16;97699.25;5026125;28;20049;-61
2022/10/24 00:40:20;;;;;;;6.70;3.28;;;;;;;8.53;81.97;97685.78;5026011;28;20053;-61
2022/10/24 00:42:47;;;;;;;3.97;2.63;;;;;;;8.69;81.38;97709.63;5025591;28;20139;-61
2022/10/24 00:45:39;;;;;;;3.92;2.38;;;;;;;8.67;80.99;97708.38;5025481;28;20050;-60
2022/10/24 00:48:23;;;;;;;5.35;3.10;;;;;;;8.60;81.23;97705.38;5025028;28;20046;-61
2022/10/24 00:50:55;;;;;;;7.97;3.35;;;;;;;8.21;81.92;97657.03;5025190;28;20092;-61
2022/10/24 00:53:24;;;;;;;4.80;2.67;;;;;;;8.55;83.13;97705.59;5025541;28;20133;-62
2022/10/24 00:55:53;;;;;;;5.85;3.05;;;;;;;8.71;82.71;97701.03;5025450;28;20049;-61
2022/10/24 00:58:22;;;;;;;6.32;3.15;;;;;;;8.78;81.09;97698.50;5024118;28;20144;-61
2022/10/24 01:00:49;;;;;;;5.57;3.03;;;;;;;8.68;81.68;97710.78;5025052;28;20535;-61
2022/10/24 01:03:16;;;;;;;6.57;3.67;;;;;;;8.68;80.76;97693.41;5025223;28;20077;-61
2022/10/24 01:06:10;;;;;;;9.30;4.40;;;;;;;8.63;81.27;97701.94;5025171;28;20075;-62
2022/10/24 01:08:57;;;;;;;7.65;3.45;;;;;;;8.31;80.55;97662.16;5025038;28;20054;-62
2022/10/24 01:11:38;;;;;;;6.43;4.05;;;;;;;8.48;81.45;97694.28;5023217;28;20128;-61
2022/10/24 01:14:35;;;;;;;8.80;4.30;;;;;;;8.53;81.91;97692.13;5024957;28;20096;-63
2022/10/24 01:17:02;;;;;;;7.68;3.97;;;;;;;8.47;83.09;97689.91;5024784;28;20093;-61
2022/10/24 01:20:01;;;;;;;7.30;3.47;;;;;;;8.58;85.44;97688.34;5024793;28;20124;-61
2022/10/24 01:22:33;;;;;;;4.82;3.20;;;;;;;8.47;87.04;97671.38;5019895;28;20057;-61
2022/10/24 01:25:15;;;;;;;4.18;2.72;;;;;;;8.59;87.35;97673.38;5024697;28;20527;-61
2022/10/24 01:28:18;;;;;;;6.82;3.05;;;;;;;8.59;87.50;97673.38;5024151;28;20106;-63
2022/10/24 01:31:24;;;;;;;5.03;2.95;;;;;;;8.60;86.79;97680.53;5023127;28;20539;-58
2022/10/24 01:33:55;;;;;;;12.60;4.82;;;;;;;8.38;87.66;97656.06;5024625;28;20132;-59
2022/10/24 01:36:39;;;;;;;11.07;5.25;;;;;;;8.45;87.44;97689.44;5024841;28;20164;-60
2022/10/24 01:39:12;;;;;;;10.27;5.10;;;;;;;8.33;87.87;97679.16;5024556;28;20092;-60
2022/10/24 01:41:41;;;;;;;6.68;4.00;;;;;;;8.36;86.08;97680.44;5024801;28;20112;-61
2022/10/24 01:44:22;;;;;;;8.20;4.10;;;;;;;8.33;84.14;97681.13;5023545;28;20089;-62
2022/10/24 01:46:57;;;;;;;18.00;8.38;;;;;;;7.90;82.39;97628.28;5025141;28;20593;-60
2022/10/24 01:49:30;;;;;;;23.00;9.75;;;;;;;8.10;82.26;97677.09;5024530;28;20144;-61
2022/10/24 01:52:01;;;;;;;22.25;9.25;;;;;;;7.59;82.81;97639.72;5024723;28;20077;-61
2022/10/24 01:54:29;;;;;;;25.77;9.45;;;;;;;7.47;83.39;97628.66;5024675;28;20512;-61
2022/10/24 01:56:57;;;;;;;19.60;7.80;;;;;;;7.87;83.16;97689.63;5024826;28;20065;-61
2022/10/24 01:59:29;;;;;;;16.25;7.57;;;;;;;7.88;83.06;97669.16;5024807;28;20152;-63
2022/10/24 02:02:05;;;;;;;12.07;4.45;;;;;;;7.82;84.28;97676.84;5024734;28;20084;-59
2022/10/24 02:04:35;;;;;;;10.57;4.15;;;;;;;7.91;84.96;97691.38;5024471;28;20084;-58
2022/10/24 02:07:07;;;;;;;7.20;3.55;;;;;;;7.82;84.54;97673.28;5024499;28;20053;-59
2022/10/24 02:09:37;;;;;;;10.05;4.95;;;;;;;7.96;84.55;97698.63;5022891;28;20140;-60
2022/10/24 02:12:07;;;;;;;7.85;3.85;;;;;;;7.91;84.09;97701.59;5023926;28;20141;-61
2022/10/24 02:14:40;;;;;;;6.72;3.22;;;;;;;7.88;84.92;97691.25;5024515;28;20136;-58
2022/10/24 02:17:06;;;;;;;6.00;3.10;;;;;;;7.85;87.23;97687.22;5024504;28;20512;-61
2022/10/24 02:19:35;;;;;;;10.00;4.57;;;;;;;7.81;85.92;97685.47;5023271;28;20060;-61
2022/10/24 02:22:19;;;;;;;11.00;4.95;;;;;;;7.78;86.07;97680.63;5026074;28;20152;-61
2022/10/24 02:24:53;;;;;;;8.75;4.20;;;;;;;7.70;86.36;97680.34;5028571;28;20156;-61
2022/10/24 02:27:45;;;;;;;;;;;;;;;7.73;86.78;97676.91;5028552;28;20152;-62
2022/10/24 02:30:22;;;;;;;13.63;5.45;;;;;;;7.73;85.88;97690.69;5019119;28;20043;-62
2022/10/24 02:32:53;;;;;;;11.98;5.28;;;;;;;7.64;86.53;97687.22;5026307;28;20088;-61
2022/10/24 02:35:28;;;;;;;16.65;10.02;;;;;;;7.77;87.68;97695.53;5028251;28;20582;-61
2022/10/24 02:38:15;;;;;;;11.05;7.00;;;;;;;7.79;88.74;97694.09;5026263;28;20176;-58
2022/10/24 02:40:43;;;;;;;16.30;9.73;;;;;;;7.76;88.29;97688.44;5027904;28;20523;-58
2022/10/24 02:43:12;;;;;;;19.05;9.60;;;;;;;7.34;87.80;97619.50;5028395;28;20133;-59
2022/10/24 02:45:39;;;;;;;11.05;5.22;;;;;;;7.93;91.21;97683.59;5028021;28;20057;-59
2022/10/24 02:48:10;;;;;;;14.82;6.00;;;;;;;7.53;87.75;97680.47;5026227;28;20052;-59
2022/10/24 02:50:40;;;;;;;15.88;7.40;;;;;;;6.92;90.03;97686.69;5027746;28;20088;-57
2022/10/24 02:53:18;;;;;;;14.73;6.88;;;;;;;7.17;90.22;97660.13;5027890;28;20476;-61
2022/10/24 02:55:44;;;;;;;16.15;6.60;;;;;;;6.82;89.92;97587.91;5026522;28;20128;-61
2022/10/24 02:58:11;;;;;;;17.30;7.70;;;;;;;7.19;88.39;97683.44;5027743;28;20148;-61
2022/10/24 03:00:37;;;;;;;12.10;6.47;;;;;;;6.90;90.83;97672.44;5027554;28;20140;-61
2022/10/24 03:03:04;;;;;;;11.57;6.25;;;;;;;6.64;93.95;97613.91;5027509;28;20053;-62
2022/10/24 03:05:31;;;;;;;13.80;6.63;;;;;;;7.10;92.59;97684.63;5027424;28;20420;-61
2022/10/24 03:07:57;;;;;;;14.05;7.22;;;;;;;6.48;92.39;97579.03;5027348;28;20059;-62
2022/10/24 03:10:24;;;;;;;10.93;5.57;;;;;;;6.95;92.29;97664.00;5027367;28;20049;-61
2022/10/24 03:12:51;;;;;;;11.45;5.82;;;;;;;7.02;91.97;97678.03;5027249;28;20581;-60
2022/10/24 03:15:17;;;;;;;7.85;4.03;;;;;;;7.07;92.16;97688.88;5027317;28;20133;-61
2022/10/24 03:17:47;;;;;;;8.05;3.05;;;;;;;7.12;92.83;97685.94;5027385;28;20095;-60
2022/10/24 03:20:15;;;;;;;6.53;3.10;;;;;;;6.83;93.01;97644.59;5027439;28;20053;-62
2022/10/24 03:22:42;;;;;;;5.72;2.70;;;;;;;6.66;93.39;97600.63;5025462;28;20141;-58
2022/10/24 03:25:10;;;;;;;7.55;4.32;;;;;;;7.37;93.28;97686.91;5025469;28;20188;-59
2022/10/24 03:27:37;;;;;;;6.32;3.15;;;;;;;6.78;93.13;97631.00;5027193;28;20099;-62
2022/10/24 03:30:04;;;;;;;6.28;3.10;;;;;;;7.22;92.53;97682.78;5027035;28;20528;-58
2022/10/24 03:32:32;;;;;;;8.43;4.45;;;;;;;7.26;93.76;97686.50;5026420;28;20144;-58
2022/10/24 03:35:01;;;;;;;10.85;5.47;;;;;;;7.13;92.77;97693.03;5024488;28;20514;-58
2022/10/24 03:37:28;;;;;;;11.80;6.18;;;;;;;6.86;93.93;97632.91;5026647;28;20532;-59
2022/10/24 03:39:55;;;;;;;12.32;5.63;;;;;;;7.38;92.73;97689.31;5026738;28;20363;-58
2022/10/24 03:42:22;;;;;;;9.43;5.40;;;;;;;7.37;97.65;97701.50;5025393;28;20081;-60
2022/10/24 03:44:48;;;;;;;9.02;4.50;;;;;;;7.56;99.32;97690.03;5026591;28;20080;-57
2022/10/24 03:47:15;;;;;;;10.48;4.97;;;;;;;7.60;98.91;97685.47;5025137;28;20084;-59
2022/10/24 03:49:41;;;;;;;8.00;4.22;;;;;;;7.55;99.35;97672.69;5026491;28;20576;-58
2022/10/24 03:52:08;;;;;;;11.13;4.95;;;;;;;7.83;98.33;97683.16;5025971;28;20076;-59
2022/10/24 03:54:35;;;;;;;8.32;4.93;;;;;;;7.85;97.04;97680.88;5027015;28;20089;-59
2022/10/24 03:57:01;;;;;;;11.82;4.75;;;;;;;7.89;97.26;97670.81;5025006;28;20091;-59
2022/10/24 03:59:28;;;;;;;8.38;4.50;;;;;;;7.90;96.57;97672.41;5026633;28;20845;-61
2022/10/24 04:01:55;;;;;;;10.75;5.45;;;;;;;7.98;95.86;97669.59;5026716;28;20060;-61
2022/10/24 04:04:22;;;;;;;7.60;4.45;;;;;;;7.67;91.73;97666.41;5026752;28;20448;-60
2022/10/24 04:06:48;;;;;;;10.25;6.47;;;;;;;7.25;93.90;97607.75;5026596;28;20132;-60
2022/10/24 04:09:15;;;;;;;15.40;8.00;;;;;;;7.63;94.35;97674.56;5026227;28;20092;-61
2022/10/24 04:11:41;;;;;;;18.75;9.88;;;;;;;7.66;93.11;97673.91;5026647;28;20049;-57
2022/10/24 04:14:08;;;;;;;13.15;8.98;;;;;;;7.64;93.04;97647.81;5024942;28;20108;-61
2022/10/24 04:16:35;;;;;;;15.55;8.55;;;;;;;7.10;93.36;97568.94;5026462;28;20121;-59
2022/10/24 04:19:01;;;;;;;15.55;8.25;;;;;;;7.38;93.38;97623.19;5026147;28;20126;-60
2022/10/24 04:21:28;;;;;;;17.67;8.48;;;;;;;7.59;93.08;97650.75;5026207;28;20140;-58
2022/10/24 04:23:55;;;;;;;15.15;8.70;;;;;;;7.50;92.10;97636.25;5024142;28;20112;-59
2022/10/24 04:26:22;;;;;;;16.90;8.00;;;;;;;7.64;92.19;97665.16;5026164;28;20132;-58
2022/10/24 04:28:49;;;;;;;16.52;7.82;;;;;;;7.69;91.89;97656.69;5026211;28;20096;-59
2022/10/24 04:31:16;;;;;;;12.50;8.50;;;;;;;7.69;91.75;97662.22;5025997;28;20085;-57
2022/10/24 04:33:48;;;;;;;17.83;8.63;;;;;;;7.70;91.71;97669.31;5025671;28;20057;-61
2022/10/24 04:36:15;;;;;;;17.58;8.70;;;;;;;7.80;91.21;97659.03;5025775;28;20061;-58
2022/10/24 04:38:42;;;;;;;15.20;7.75;;;;;;;7.88;90.36;97669.16;5025387;28;20530;-60
2022/10/24 04:41:08;;;;;;;12.75;6.85;;;;;;;5.13;90.13;97239.31;5025555;28;20148;-58
2022/10/24 04:43:38;;;;;;;16.52;8.55;;;;;;;7.79;91.20;97682.25;5024011;28;20054;-61
2022/10/24 04:46:05;;;;;;;70.28;14.35;;;;;;;7.35;91.00;97604.56;5025707;28;20495;-61
2022/10/24 04:48:32;;;;;;;33.70;10.68;;;;;;;7.87;90.81;97651.03;5025491;28;20053;-61
2022/10/24 04:50:59;;;;;;;21.05;7.78;;;;;;;7.80;92.33;97661.78;5025196;28;20117;-61
2022/10/24 04:53:25;;;;;;;17.95;6.97;;;;;;;7.88;92.64;97663.66;5025448;28;20154;-61
2022/10/24 04:55:52;;;;;;;14.27;5.53;;;;;;;8.07;92.85;97661.22;5025364;28;20504;-61
2022/10/24 04:58:19;;;;;;;12.82;5.88;;;;;;;6.47;92.55;97399.34;5025095;28;20504;-60
2022/10/24 05:00:48;;;;;;;22.48;12.77;;;;;;;7.64;92.26;97593.47;5025482;28;20199;-62
2022/10/24 05:03:19;;;;;;;23.67;11.02;;;;;;;8.27;91.04;97688.00;5025403;28;20049;-61
2022/10/24 05:05:46;;;;;;;21.25;11.77;;;;;;;8.29;91.90;97674.66;5025368;28;20083;-59
2022/10/24 05:08:13;;;;;;;26.55;11.07;;;;;;;8.30;92.87;97665.25;5025333;28;20049;-62
2022/10/24 05:10:40;;;;;;;25.50;9.82;;;;;;;5.75;93.00;97251.19;5040026;28;20449;-63
2022/10/24 05:13:06;;;;;;;31.20;9.38;;;;;;;8.42;91.37;97673.56;5024885;28;20052;-61
2022/10/24 05:15:33;;;;;;;38.40;11.90;;;;;;;8.58;91.42;97677.28;5024907;28;20150;-63
2022/10/24 05:18:00;;;;;;;49.13;12.05;;;;;;;8.65;90.93;97666.47;5039881;28;20096;-61
2022/10/24 05:20:27;;;;;;;64.45;11.90;;;;;;;8.41;87.55;97622.28;5025069;28;20149;-59
2022/10/24 05:22:53;;;;;;;75.63;13.48;;;;;;;8.57;86.90;97648.03;5025227;28;20172;-62
2022/10/24 05:25:20;;;;;;;48.50;12.15;;;;;;;8.41;87.25;97627.78;5024863;28;20049;-61
2022/10/24 05:27:47;;;;;;;45.28;12.55;;;;;;;8.47;86.68;97596.03;5025087;28;20124;-60
2022/10/24 05:30:14;;;;;;;29.42;9.95;;;;;;;9.02;88.76;97659.84;5024612;28;20053;-62
2022/10/24 05:32:40;;;;;;;23.02;9.80;;;;;;;8.64;87.71;97560.75;5024309;28;20501;-61
2022/10/24 05:35:08;;;;;;;20.73;10.68;;;;;;;9.41;87.09;97672.13;5024872;28;20062;-61
2022/10/24 05:37:36;;;;;;;29.80;10.95;;;;;;;9.60;87.00;97667.63;5008902;28;20196;-59
2022/10/24 05:40:03;;;;;;;20.73;9.57;;;;;;;9.84;85.85;97670.34;5024630;28;20049;-61
2022/10/24 05:42:29;;;;;;;30.10;10.80;;;;;;;9.17;84.26;97562.41;5024643;28;20654;-59
2022/10/24 05:44:56;;;;;;;19.92;6.47;;;;;;;9.57;84.71;97593.66;5024569;28;20166;-59
2022/10/24 05:47:23;;;;;;;21.30;6.20;;;;;;;10.27;84.15;97667.69;5023062;28;20458;-61
2022/10/24 05:49:54;;;;;;;29.40;9.70;;;;;;;10.19;81.68;97665.88;5005330;28;20057;-62
2022/10/24 05:52:21;;;;;;;24.48;7.50;;;;;;;10.38;78.89;97682.63;5005160;28;20062;-59
2022/10/24 05:54:47;;;;;;;18.02;6.88;;;;;;;8.75;77.51;97422.97;5005714;28;20053;-63
2022/10/24 05:57:32;;;;;;;12.65;6.35;;;;;;;9.66;77.94;97557.56;5019833;28;20053;-63
2022/10/24 05:59:59;;;;;;;22.17;5.95;;;;;;;9.54;77.53;97505.84;5022471;28;20053;-62
2022/10/24 06:02:26;;;;;;;17.27;6.65;;;;;;;9.92;77.52;97555.94;5024471;28;20049;-63
2022/10/24 06:04:54;;;;;;;12.95;5.30;;;;;;;10.83;77.63;97678.69;5024014;28;20049;-63
2022/10/24 06:07:21;;;;;;;9.32;4.82;;;;;;;10.73;77.67;97642.00;5024612;28;20107;-63
2022/10/24 06:09:48;;;;;;;9.55;5.10;;;;;;;11.26;76.98;97681.34;5024461;28;20502;-62
2022/10/24 06:12:15;;;;;;;11.98;4.97;;;;;;;11.24;75.89;97644.88;5024690;28;20061;-69
2022/10/24 06:14:41;;;;;;;14.23;6.97;;;;;;;11.67;75.06;97678.00;5024504;28;20518;-68
2022/10/24 06:17:08;;;;;;;19.35;7.55;;;;;;;11.84;74.83;97677.59;5023216;28;20060;-61
2022/10/24 06:19:35;;;;;;;14.98;7.00;;;;;;;11.77;74.70;97638.59;5022492;28;20796;-63
2022/10/24 06:22:04;;;;;;;12.52;6.45;;;;;;;12.28;74.22;97667.03;5024319;28;20053;-64
2022/10/24 06:24:33;;;;;;;15.43;6.95;;;;;;;12.48;73.36;97672.22;5023936;28;20081;-64
2022/10/24 06:27:00;;;;;;;21.40;6.78;;;;;;;12.54;73.56;97659.63;5024256;28;20495;-61
2022/10/24 06:29:27;;;;;;;15.52;6.78;;;;;;;12.75;73.25;97660.03;5024207;28;20492;-62
2022/10/24 06:31:53;;;;;;;7.63;4.40;;;;;;;12.95;74.14;97669.91;5021578;28;20057;-66
2022/10/24 06:34:20;;;;;;;12.45;4.50;;;;;;;13.22;73.50;97674.41;5023961;28;20467;-62
2022/10/24 06:36:46;;;;;;;7.57;5.05;;;;;;;12.68;72.87;97570.94;5023892;28;20060;-62
2022/10/24 06:39:13;;;;;;;18.05;6.47;;;;;;;13.52;72.59;97672.50;5023640;28;20049;-62
2022/10/24 06:41:40;;;;;;;18.63;5.70;;;;;;;12.95;70.10;97539.22;5024151;28;20132;-61
2022/10/24 06:44:06;;;;;;;10.65;5.63;;;;;;;14.00;69.52;97678.38;5022435;28;20060;-62
2022/10/24 06:46:37;;;;;;;10.13;5.47;;;;;;;13.17;68.05;97521.69;5023455;28;20060;-62
2022/10/24 06:49:03;;;;;;;13.15;5.30;;;;;;;14.12;67.68;97678.13;5023456;28;20208;-61
2022/10/24 06:51:30;;;;;;;19.13;6.90;;;;;;;13.84;67.14;97599.75;5023835;28;20136;-60
2022/10/24 06:53:57;;;;;;;21.50;5.85;;;;;;;14.12;66.31;97591.75;5023721;28;20188;-61
2022/10/24 06:56:25;;;;;;;15.30;5.10;;;;;;;14.37;66.10;97595.69;5021755;28;20072;-62
2022/10/24 06:58:51;;;;;;;26.05;6.18;;;;;;;14.56;64.49;97626.13;5018348;28;20552;-61
2022/10/24 07:01:22;;;;;;;23.27;6.05;;;;;;;15.30;64.44;97661.13;5011578;28;20505;-60
2022/10/24 07:03:49;;;;;;;26.52;6.53;;;;;;;15.44;63.91;97664.09;5001382;28;20509;-61
2022/10/24 07:06:22;;;;;;;25.42;7.10;;;;;;;15.49;63.49;97624.63;5016274;28;20054;-64
2022/10/24 07:08:56;;;;;;;20.42;6.05;;;;;;;15.46;62.33;97572.34;5003243;28;20158;-63
2022/10/24 07:11:24;;;;;;;43.25;6.97;;;;;;;16.33;61.09;97658.63;5003600;28;20077;-67
2022/10/24 07:13:50;;;;;;;18.17;4.80;;;;;;;14.33;60.09;97307.78;5004901;28;20148;-63
2022/10/24 07:16:23;;;;;;;31.40;6.40;;;;;;;16.80;59.31;97660.44;5003102;28;20088;-64
2022/10/24 07:18:50;;;;;;;42.05;6.38;;;;;;;16.78;58.92;97617.25;5003176;28;20092;-67
2022/10/24 07:21:23;;;;;;;17.20;5.13;;;;;;;17.25;57.57;97654.09;5015570;28;20312;-63
2022/10/24 07:23:51;;;;;;;8.90;4.88;;;;;;;17.02;56.68;97583.72;5004586;28;20482;-63
2022/10/24 07:26:20;;;;;;;9.73;3.83;;;;;;;17.41;56.22;97648.09;5004799;28;20085;-59
2022/10/24 07:28:52;;;;;;;6.78;3.90;;;;;;;17.42;56.15;97658.13;5006534;28;20053;-61
2022/10/24 07:31:21;;;;;;;7.05;3.40;;;;;;;17.47;56.18;97649.31;5005453;28;20571;-59
2022/10/24 07:33:49;;;;;;;6.30;3.75;;;;;;;17.74;55.98;97653.31;5005736;28;20089;-61
2022/10/24 07:36:20;;;;;;;8.10;3.60;;;;;;;17.52;55.15;97590.09;5005455;28;20064;-57
2022/10/24 07:38:48;;;;;;;10.10;4.47;;;;;;;17.78;54.55;97592.47;5004963;28;20053;-59
2022/10/24 07:41:15;;;;;;;10.43;4.43;;;;;;;17.39;53.83;97502.88;5006002;28;20919;-66
2022/10/24 07:43:42;;;;;;;9.27;3.92;;;;;;;17.32;51.98;97479.69;5005688;28;20081;-59
2022/10/24 07:46:11;;;;;;;13.95;4.18;;;;;;;18.66;51.48;97654.69;5005662;28;20088;-58
2022/10/24 07:48:38;;;;;;;5.03;2.90;;;;;;;15.99;49.45;97200.97;5012584;28;20148;-62
2022/10/24 07:51:06;;;;;;;9.02;2.78;;;;;;;19.02;48.64;97655.25;5025309;28;20080;-62
2022/10/24 07:53:33;;;;;;;4.45;2.95;;;;;;;18.98;49.03;97604.75;5023789;28;20049;-60
2022/10/24 07:56:00;;;;;;;7.40;3.03;;;;;;;19.25;49.47;97608.53;5025390;28;20518;-61
2022/10/24 07:58:28;;;;;;;7.75;3.25;;;;;;;19.64;47.67;97641.16;5024126;28;20409;-63
2022/10/24 08:00:55;;;;;;;12.60;3.15;;;;;;;19.81;47.64;97646.63;5025343;28;20133;-59
2022/10/24 08:03:21;;;;;;;8.40;2.92;;;;;;;19.86;47.43;97642.56;5025066;28;20057;-57
2022/10/24 08:05:48;;;;;;;6.35;2.70;;;;;;;19.88;46.41;97590.34;5024892;28;20162;-59
2022/10/24 08:08:14;;;;;;;5.47;2.80;;;;;;;20.28;45.92;97633.72;5025241;28;20136;-59
2022/10/24 08:11:06;;;;;;;11.25;3.72;;;;;;;20.19;46.80;97622.16;5025420;28;20042;-62
2022/10/24 08:13:33;;;;;;;9.65;2.35;;;;;;;20.08;46.24;97618.63;5025649;28;21263;-63
2022/10/24 08:15:59;;;;;;;5.47;2.50;;;;;;;19.80;46.72;97588.81;5024862;28;20468;-64
2022/10/24 08:18:27;;;;;;;5.57;2.28;;;;;;;19.84;46.03;97622.53;5023917;28;20518;-61
2022/10/24 08:21:01;;;;;;;7.90;2.53;;;;;;;20.00;46.20;97619.91;5024287;28;20049;-60
2022/10/24 08:23:28;;;;;;;8.48;2.95;;;;;;;20.10;45.88;97600.13;5023388;28;20053;-60
2022/10/24 08:25:54;;;;;;;7.32;2.88;;;;;;;19.98;45.84;97560.50;5024608;28;20065;-62
2022/10/24 08:28:22;;;;;;;4.65;2.88;;;;;;;20.41;44.63;97617.88;5024901;28;20119;-62
2022/10/24 08:31:00;;;;;;;8.00;2.67;;;;;;;18.50;44.71;97275.56;5022999;28;20506;-61
2022/10/24 08:33:27;;;;;;;8.05;2.47;;;;;;;20.56;44.11;97579.88;5024412;28;20522;-60
2022/10/24 08:35:58;;;;;;;7.82;4.03;;;;;;;20.84;43.17;97621.72;5024753;28;20045;-60
2022/10/24 08:38:25;;;;;;;6.53;3.70;;;;;;;20.22;43.44;97553.78;5022995;28;20476;-63
2022/10/24 08:40:52;;;;;;;23.95;8.90;;;;;;;20.66;43.20;97619.16;5024123;28;20064;-61
2022/10/24 08:43:19;;;;;;;9.55;4.72;;;;;;;20.59;43.63;97607.19;5022906;28;20582;-62
2022/10/24 08:46:13;;;;;;;6.82;3.17;;;;;;;20.84;42.95;97602.81;5024014;28;20480;-64
2022/10/24 08:48:48;;;;;;;4.85;2.88;;;;;;;20.74;43.11;97557.88;5024519;28;20142;-63
2022/10/24 08:51:49;;;;;;;3.83;3.10;;;;;;;20.69;42.66;97488.00;5024487;28;20136;-67
2022/10/24 08:54:25;;;;;;;3.05;2.42;;;;;;;20.90;42.62;97515.81;5024724;28;20132;-69
2022/10/24 08:56:56;;;;;;;4.68;2.45;;;;;;;21.49;41.96;97592.97;5023108;28;20061;-69
2022/10/24 08:59:26;;;;;;;7.05;3.33;;;;;;;21.38;42.02;97594.34;5023980;28;20053;-62
2022/10/24 09:02:12;;;;;;;3.85;2.80;;;;;;;21.67;42.27;97579.31;5022485;28;20076;-61
2022/10/24 09:04:46;;;;;;;3.95;2.47;;;;;;;22.03;41.37;97583.13;5022573;28;20527;-62
2022/10/24 09:07:17;;;;;;;5.20;2.70;;;;;;;21.15;40.58;97437.31;5022317;28;20153;-65
2022/10/24 09:09:48;;;;;;;2.83;2.45;;;;;;;21.81;40.20;97536.81;5024366;28;20076;-67
2022/10/24 09:12:18;;;;;;;3.83;2.63;;;;;;;21.81;40.84;97587.59;5023877;28;20046;-63
2022/10/24 09:14:49;;;;;;;5.88;2.83;;;;;;;21.46;40.79;97469.78;5023855;28;20076;-64
2022/10/24 09:17:20;;;;;;;2.45;2.25;;;;;;;22.35;40.11;97577.63;5022545;28;20056;-62
2022/10/24 09:19:56;;;;;;;4.07;3.08;;;;;;;22.65;40.25;97573.00;5022396;28;20053;-60
2022/10/24 09:22:28;;;;;;;2.97;2.35;;;;;;;22.88;39.63;97561.56;5022073;28;20504;-58
2022/10/24 09:25:02;;;;;;;4.15;2.67;;;;;;;22.88;39.95;97559.53;5023637;28;20099;-60
2022/10/24 09:27:37;;;;;;;3.78;2.90;;;;;;;22.44;39.55;97450.78;5023865;28;20084;-60
2022/10/24 09:30:06;;;;;;;5.80;2.55;;;;;;;23.30;39.64;97552.13;5023402;28;20140;-60
2022/10/24 09:32:34;;;;;;;5.78;2.88;;;;;;;23.39;39.67;97555.91;5021680;28;20096;-61
2022/10/24 09:35:06;;;;;;;14.68;7.68;;;;;;;22.84;40.05;97473.28;5022068;28;20122;-61
2022/10/24 09:37:35;;;;;;;3.95;3.20;;;;;;;23.42;39.40;97531.59;5023917;28;20115;-61
2022/10/24 09:40:20;;;;;;;6.20;2.67;;;;;;;23.19;39.70;97534.59;5023355;28;20467;-59
2022/10/24 09:43:03;;;;;;;6.00;2.80;;;;;;;22.87;40.30;97455.44;5023481;28;20136;-60
2022/10/24 09:45:45;;;;;;;3.17;2.83;;;;;;;23.70;39.73;97530.84;5023450;28;20068;-61
2022/10/24 09:48:27;;;;;;;5.50;2.78;;;;;;;23.98;39.07;97524.44;5022039;28;20879;-61
2022/10/24 09:50:57;;;;;;;2.88;2.58;;;;;;;24.14;38.36;97527.22;5023300;28;20053;-60
2022/10/24 09:53:29;;;;;;;6.57;3.45;;;;;;;24.30;38.38;97532.00;5021404;28;20132;-60
2022/10/24 09:56:11;;;;;;;5.70;3.22;;;;;;;24.31;38.01;97520.22;5021903;28;20059;-60
2022/10/24 09:58:39;;;;;;;6.32;2.75;;;;;;;24.59;38.39;97510.91;5023145;28;20057;-60
2022/10/24 10:01:26;;;;;;;4.70;2.75;;;;;;;24.78;37.57;97521.25;5022024;28;20046;-60
2022/10/24 10:04:04;;;;;;;5.55;3.80;;;;;;;24.84;37.40;97522.28;5021297;28;20053;-60
2022/10/24 10:06:43;;;;;;;5.93;4.22;;;;;;;24.86;37.93;97511.28;5021449;28;20053;-60
2022/10/24 10:09:22;;;;;;;5.47;3.30;;;;;;;24.79;38.06;97483.16;5023065;28;20069;-59
2022/10/24 10:11:55;;;;;;;5.55;3.10;;;;;;;24.63;37.56;97434.25;5022663;28;20119;-60
2022/10/24 10:14:28;;;;;;;2.90;2.63;;;;;;;24.12;37.11;97334.38;5022249;28;20053;-59
2022/10/24 10:17:01;;;;;;;4.13;2.90;;;;;;;25.31;36.88;97486.28;5023393;28;20095;-61
2022/10/24 10:19:31;;;;;;;5.78;3.33;;;;;;;24.90;36.75;97392.91;5021775;28;20156;-59
2022/10/24 10:22:04;;;;;;;7.03;3.47;;;;;;;25.67;36.56;97502.09;5023003;28;20053;-60
2022/10/24 10:24:42;;;;;;;5.30;2.93;;;;;;;25.57;36.44;97497.59;5022661;28;20128;-62
2022/10/24 10:27:39;;;;;;;4.68;3.13;;;;;;;25.58;36.23;97490.66;5023086;28;20548;-60
2022/10/24 10:30:10;;;;;;;5.05;3.28;;;;;;;25.46;36.47;97452.56;5018042;28;20528;-62
2022/10/24 10:32:56;;;;;;;3.72;2.97;;;;;;;24.87;36.69;97365.47;5022626;28;20135;-60
2022/10/24 10:35:28;;;;;;;6.00;3.33;;;;;;;25.44;36.68;97482.63;5023322;28;20061;-72
2022/10/24 10:38:10;;;;;;;5.93;3.33;;;;;;;25.64;36.59;97481.09;5022561;28;20115;-69
2022/10/24 10:40:45;;;;;;;6.30;3.30;;;;;;;25.09;36.28;97394.66;5022791;28;20140;-61
2022/10/24 10:43:21;;;;;;;5.25;3.03;;;;;;;25.72;36.63;97471.06;5024935;28;20050;-59
2022/10/24 10:46:07;;;;;;;5.72;3.05;;;;;;;25.81;36.12;97467.53;5027142;28;20132;-67
2022/10/24 10:48:39;;;;;;;6.53;2.92;;;;;;;25.95;36.21;97464.16;5025379;28;20160;-57
2022/10/24 10:51:52;;;;;;;4.33;3.03;;;;;;;25.97;35.81;97459.59;5026915;28;20796;-57
2022/10/24 10:55:05;;;;;;;4.55;3.33;;;;;;;25.99;36.37;97479.00;5018745;28;20291;-60
2022/10/24 10:58:04;;;;;;;6.32;3.42;;;;;;;25.29;35.81;97327.09;5026766;28;20148;-60
2022/10/24 11:00:47;;;;;;;6.25;3.90;;;;;;;25.12;36.29;97359.72;5025013;28;20480;-64
2022/10/24 11:03:35;;;;;;;7.15;4.18;;;;;;;25.01;36.20;97294.09;5025094;28;20487;-75
2022/10/24 11:06:14;;;;;;;5.13;3.30;;;;;;;26.14;36.08;97440.34;5024838;28;20572;-61
2022/10/24 11:09:12;;;;;;;10.85;3.63;;;;;;;26.27;36.44;97439.00;5026163;28;20100;-66
2022/10/24 11:11:49;;;;;;;6.28;3.72;;;;;;;26.06;35.85;97387.91;5024890;28;20053;-65
2022/10/24 11:14:28;;;;;;;6.07;3.85;;;;;;;25.89;36.18;97429.88;5025886;28;20528;-62
2022/10/24 11:17:03;;;;;;;8.18;3.67;;;;;;;25.42;36.45;97343.31;5026196;28;20061;-64
2022/10/24 11:19:44;;;;;;;5.05;3.58;;;;;;;25.76;36.42;97403.63;5026280;28;20132;-60
2022/10/24 11:22:26;;;;;;;6.53;3.65;;;;;;;26.08;36.30;97416.66;5026208;28;20123;-65
2022/10/24 11:25:00;;;;;;;9.85;6.05;;;;;;;25.66;36.66;97348.03;5025688;28;20094;-62
2022/10/24 11:27:43;;;;;;;5.82;4.03;;;;;;;25.86;37.08;97344.88;5025541;28;20053;-67
2022/10/24 11:30:15;;;;;;;6.53;3.25;;;;;;;25.65;36.47;97271.88;5026009;28;20146;-60
2022/10/24 11:32:51;;;;;;;9.80;3.80;;;;;;;26.54;36.79;97412.81;5024564;28;20141;-60
2022/10/24 11:35:29;;;;;;;8.73;4.25;;;;;;;26.08;36.05;97345.66;5025561;28;20491;-61
2022/10/24 11:38:13;;;;;;;10.93;4.10;;;;;;;26.68;35.93;97407.34;5025770;28;20477;-61
2022/10/24 11:40:41;;;;;;;;;;;;;;;26.75;36.00;97406.25;5026578;28;20673;-59
2022/10/24 11:43:27;;;;;;;5.32;3.70;;;;;;;26.47;36.40;97370.44;5026324;28;19925;-62
2022/10/24 11:45:56;;;;;;;5.95;3.17;;;;;;;26.72;36.25;97398.66;5026515;28;20049;-64
2022/10/24 11:48:44;;;;;;;6.15;3.35;;;;;;;26.78;35.75;97393.19;5026706;28;20081;-73
2022/10/24 11:51:19;;;;;;;13.48;3.90;;;;;;;26.30;36.56;97391.84;5024697;28;20677;-66
2022/10/24 11:53:59;;;;;;;9.00;4.28;;;;;;;26.63;36.64;97388.06;5022424;28;20120;-61
2022/10/24 11:56:52;;;;;;;11.50;4.05;;;;;;;26.81;35.97;97380.88;5019382;28;20053;-63